createdAt,value
2022-12-15T00:02:10.196Z,-0.81
2022-12-15T00:04:55.278Z,-0.88
2022-12-15T00:07:40.138Z,-0.88
2022-12-15T00:10:25.555Z,-0.87
2022-12-15T00:13:10.340Z,-0.81
2022-12-15T00:15:55.787Z,-0.84
2022-12-15T00:18:40.818Z,-0.85
2022-12-15T00:21:25.610Z,-0.86
2022-12-15T00:24:10.305Z,-0.88
2022-12-15T00:26:55.055Z,-0.89
2022-12-15T00:29:39.838Z,-0.93
2022-12-15T00:32:24.678Z,-0.92
2022-12-15T00:35:09.568Z,-0.96
2022-12-15T00:37:54.280Z,-0.93
2022-12-15T00:40:20.772Z,-0.93
2022-12-15T00:42:47.766Z,-0.94
2022-12-15T00:45:16.358Z,-0.93
2022-12-15T00:47:42.941Z,-0.87
2022-12-15T00:50:28.436Z,-0.92
2022-12-15T00:53:13.273Z,-0.93
2022-12-15T00:55:58.099Z,-0.92
2022-12-15T00:58:42.918Z,-0.91
2022-12-15T01:01:29.330Z,-0.97
2022-12-15T01:04:14.559Z,-0.97
2022-12-15T01:06:59.618Z,-1.00
2022-12-15T01:09:44.936Z,-0.97
2022-12-15T01:12:29.879Z,-0.93
2022-12-15T01:15:14.720Z,-0.92
2022-12-15T01:18:00.072Z,-0.95
2022-12-15T01:20:26.584Z,-0.98
2022-12-15T01:22:55.802Z,-0.99
2022-12-15T01:25:24.706Z,-0.99
2022-12-15T01:27:52.103Z,-1.03
2022-12-15T01:30:21.735Z,-1.02
2022-12-15T01:32:48.420Z,-1.05
2022-12-15T01:35:15.555Z,-1.08
2022-12-15T01:37:42.104Z,-1.07
2022-12-15T01:40:30.261Z,-1.13
2022-12-15T01:42:56.786Z,-1.11
2022-12-15T01:45:29.296Z,-1.12
2022-12-15T01:48:05.672Z,-1.08
2022-12-15T01:50:37.058Z,-1.07
2022-12-15T01:53:03.766Z,-1.10
2022-12-15T01:55:31.901Z,-1.11
2022-12-15T01:58:03.579Z,-1.12
2022-12-15T02:00:30.908Z,-1.13
2022-12-15T02:02:59.154Z,-1.17
2022-12-15T02:05:25.750Z,-1.20
2022-12-15T02:07:52.288Z,-1.23
2022-12-15T02:10:18.852Z,-1.17
2022-12-15T02:13:08.256Z,-1.18
2022-12-15T02:15:47.869Z,-1.17
2022-12-15T02:18:28.196Z,-1.23
2022-12-15T02:21:09.575Z,-1.24
2022-12-15T02:23:45.310Z,-1.26
2022-12-15T02:26:20.613Z,-1.25
2022-12-15T02:28:52.998Z,-1.26
2022-12-15T02:31:50.966Z,-1.26
2022-12-15T02:34:44.459Z,-1.29
2022-12-15T02:37:44.981Z,-1.25
2022-12-15T02:40:16.565Z,-1.25
2022-12-15T02:42:47.911Z,-1.24
2022-12-15T02:45:19.994Z,-1.22
2022-12-15T02:48:07.745Z,-1.22
2022-12-15T02:50:37.309Z,-1.22
2022-12-15T02:53:21.485Z,-1.21
2022-12-15T02:56:00.797Z,-1.20
2022-12-15T02:58:30.730Z,-1.19
2022-12-15T03:01:04.419Z,-1.23
2022-12-15T03:03:34.979Z,-1.22
2022-12-15T03:06:03.059Z,-1.25
2022-12-15T03:08:30.924Z,-1.26
2022-12-15T03:10:58.910Z,-1.34
2022-12-15T03:13:25.689Z,-1.40
2022-12-15T03:15:54.433Z,-1.38
2022-12-15T03:18:21.568Z,-1.41
2022-12-15T03:20:48.285Z,-1.39
2022-12-15T03:23:15.608Z,-1.49
2022-12-15T03:25:45.221Z,-1.51
2022-12-15T03:28:12.563Z,-1.51
2022-12-15T03:30:39.097Z,-1.52
2022-12-15T03:33:05.899Z,-1.51
2022-12-15T03:35:33.814Z,-1.53
2022-12-15T03:38:00.781Z,-1.44
2022-12-15T03:40:27.288Z,-1.50
2022-12-15T03:42:53.858Z,-1.52
2022-12-15T03:45:23.272Z,-1.51
2022-12-15T03:47:50.478Z,-1.52
2022-12-15T03:50:19.872Z,-1.56
2022-12-15T03:52:53.752Z,-1.53
2022-12-15T03:55:21.544Z,-1.53
2022-12-15T03:57:48.775Z,-1.56
2022-12-15T04:00:16.031Z,-1.65
2022-12-15T04:02:43.408Z,-1.77
2022-12-15T04:05:25.737Z,-1.79
2022-12-15T04:07:53.185Z,-1.81
2022-12-15T04:10:20.160Z,-1.84
2022-12-15T04:12:46.724Z,-1.91
2022-12-15T04:15:13.349Z,-1.98
2022-12-15T04:17:40.017Z,-2.07
2022-12-15T04:20:11.230Z,-2.08
2022-12-15T04:22:42.739Z,-2.09
2022-12-15T04:25:30.416Z,-2.11
2022-12-15T04:28:15.689Z,-2.13
2022-12-15T04:31:05.094Z,-2.19
2022-12-15T04:33:50.656Z,-2.19
2022-12-15T04:36:36.514Z,-2.17
2022-12-15T04:39:24.426Z,-2.23
2022-12-15T04:42:10.647Z,-2.14
2022-12-15T04:44:55.965Z,-2.15
2022-12-15T04:47:41.183Z,-2.23
2022-12-15T04:50:26.411Z,-2.26
2022-12-15T04:53:11.101Z,-2.21
2022-12-15T04:55:56.939Z,-2.22
2022-12-15T04:58:42.273Z,-2.21
2022-12-15T05:01:27.113Z,-2.23
2022-12-15T05:04:12.490Z,-2.13
2022-12-15T05:06:57.638Z,-2.09
2022-12-15T05:09:42.330Z,-2.14
2022-12-15T05:12:27.135Z,-2.17
2022-12-15T05:15:12.022Z,-2.17
2022-12-15T05:17:56.951Z,-2.15
2022-12-15T05:20:41.685Z,-2.17
2022-12-15T05:23:26.475Z,-2.16
2022-12-15T05:26:11.294Z,-2.22
2022-12-15T05:28:56.120Z,-2.28
2022-12-15T05:31:40.904Z,-2.34
2022-12-15T05:34:07.382Z,-2.26
2022-12-15T05:36:34.041Z,-2.22
2022-12-15T05:39:00.534Z,-2.20
2022-12-15T05:41:27.095Z,-2.18
2022-12-15T05:43:53.573Z,-2.19
2022-12-15T05:46:20.149Z,-2.17
2022-12-15T05:48:46.785Z,-2.16
2022-12-15T05:51:14.314Z,-2.18
2022-12-15T05:53:42.093Z,-2.21
2022-12-15T05:56:11.915Z,-2.11
2022-12-15T05:58:44.851Z,-2.13
2022-12-15T06:01:14.802Z,-2.18
2022-12-15T06:03:41.860Z,-2.18
2022-12-15T06:06:10.119Z,-2.17
2022-12-15T06:08:39.623Z,-2.13
2022-12-15T06:11:06.921Z,-2.14
2022-12-15T06:13:35.352Z,-2.17
2022-12-15T06:16:11.293Z,-2.13
2022-12-15T06:18:41.302Z,-2.18
2022-12-15T06:21:13.318Z,-2.16
2022-12-15T06:23:40.294Z,-2.24
2022-12-15T06:26:21.281Z,-2.21
2022-12-15T06:28:49.293Z,-2.31
2022-12-15T06:31:17.739Z,-2.33
2022-12-15T06:33:44.754Z,-2.31
2022-12-15T06:36:14.111Z,-2.40
2022-12-15T06:38:43.577Z,-2.36
2022-12-15T06:41:12.808Z,-2.36
2022-12-15T06:43:39.675Z,-2.33
2022-12-15T06:46:06.562Z,-2.29
2022-12-15T06:48:33.411Z,-2.31
2022-12-15T06:51:11.998Z,-2.33
2022-12-15T06:53:49.069Z,-2.36
2022-12-15T06:56:17.505Z,-2.40
2022-12-15T06:58:47.005Z,-2.43
2022-12-15T07:01:13.573Z,-2.22
2022-12-15T07:03:40.758Z,-0.83
2022-12-15T07:06:11.064Z,-1.34
2022-12-15T07:08:41.286Z,-1.68
2022-12-15T07:11:11.773Z,-1.87
2022-12-15T07:13:38.709Z,-1.92
2022-12-15T07:16:07.189Z,-1.99
2022-12-15T07:18:33.913Z,-2.04
2022-12-15T07:21:08.432Z,-2.02
2022-12-15T07:23:53.264Z,-1.99
2022-12-15T07:26:21.689Z,-2.01
2022-12-15T07:28:48.260Z,-1.98
2022-12-15T07:31:15.575Z,-1.85
2022-12-15T07:33:42.815Z,-1.88
2022-12-15T07:36:09.841Z,-1.79
2022-12-15T07:38:36.600Z,-1.78
2022-12-15T07:41:05.344Z,-1.77
2022-12-15T07:43:32.805Z,-1.69
2022-12-15T07:46:00.445Z,-1.65
2022-12-15T07:48:27.432Z,-1.55
2022-12-15T07:51:04.890Z,-1.42
2022-12-15T07:53:34.711Z,-1.38
2022-12-15T07:56:10.252Z,-1.31
2022-12-15T07:58:38.363Z,-1.16
2022-12-15T08:01:07.408Z,-1.03
2022-12-15T08:03:35.741Z,-1.01
2022-12-15T08:06:06.080Z,-1.05
2022-12-15T08:08:34.095Z,-1.02
2022-12-15T08:11:09.337Z,-0.95
2022-12-15T08:16:23.403Z,-0.97
2022-12-15T08:18:50.083Z,-0.97
2022-12-15T08:21:17.688Z,-0.66
2022-12-15T08:23:44.619Z,-0.79
2022-12-15T08:26:13.913Z,-0.95
2022-12-15T08:28:41.939Z,-0.93
2022-12-15T08:31:14.656Z,-0.69
2022-12-15T08:33:41.437Z,-0.52
2022-12-15T08:36:10.966Z,-0.44
2022-12-15T08:38:39.044Z,-0.45
2022-12-15T08:41:19.603Z,-0.45
2022-12-15T08:43:49.242Z,-0.53
2022-12-15T08:46:21.246Z,-0.46
2022-12-15T08:48:48.179Z,-0.53
2022-12-15T08:51:15.229Z,-0.59
2022-12-15T08:53:42.300Z,-0.59
2022-12-15T08:56:12.192Z,-0.43
2022-12-15T08:58:39.358Z,-0.39
2022-12-15T09:01:08.577Z,-0.40
2022-12-15T09:03:36.428Z,-0.42
2022-12-15T09:06:04.372Z,-0.53
2022-12-15T09:08:31.172Z,-0.57
2022-12-15T09:10:58.866Z,-0.52
2022-12-15T09:13:25.636Z,-0.49
2022-12-15T09:16:09.257Z,-0.47
2022-12-15T09:18:36.257Z,-0.47
2022-12-15T09:21:04.860Z,-0.33
2022-12-15T09:23:32.143Z,-0.35
2022-12-15T09:26:15.606Z,-0.31
2022-12-15T09:28:45.064Z,-0.27
2022-12-15T09:31:21.283Z,-0.22
2022-12-15T09:33:49.471Z,-0.25
2022-12-15T09:36:16.418Z,-0.23
2022-12-15T09:38:43.415Z,-0.17
2022-12-15T09:41:15.744Z,-0.17
2022-12-15T09:43:52.199Z,-0.14
2022-12-15T09:46:39.911Z,-0.03
2022-12-15T09:49:18.799Z,-0.02
2022-12-15T09:51:53.587Z,0.05
2022-12-15T09:54:21.369Z,0.00
2022-12-15T09:56:53.277Z,0.15
2022-12-15T09:59:31.982Z,0.03
2022-12-15T10:02:12.291Z,0.12
2022-12-15T10:05:14.301Z,0.04
2022-12-15T10:07:46.300Z,0.00
2022-12-15T10:10:24.571Z,0.15
2022-12-15T10:13:04.865Z,0.19
2022-12-15T10:15:44.210Z,0.39
2022-12-15T10:18:22.480Z,0.18
2022-12-15T10:20:52.143Z,0.13
2022-12-15T10:23:18.633Z,0.22
2022-12-15T10:25:56.026Z,0.46
2022-12-15T10:29:03.169Z,0.51
2022-12-15T10:31:42.113Z,0.56
2022-12-15T10:34:25.266Z,0.65
2022-12-15T10:36:53.326Z,0.60
2022-12-15T10:39:20.955Z,0.55
2022-12-15T10:42:21.293Z,0.60
2022-12-15T10:44:50.875Z,0.30
2022-12-15T10:47:28.279Z,0.49
2022-12-15T10:50:11.055Z,0.42
2022-12-15T10:52:38.247Z,0.53
2022-12-15T10:55:37.085Z,0.42
2022-12-15T10:58:16.233Z,0.39
2022-12-15T11:00:42.711Z,0.49
2022-12-15T11:03:24.283Z,0.46
2022-12-15T11:05:55.491Z,0.52
2022-12-15T11:08:23.772Z,0.75
2022-12-15T11:11:12.140Z,0.67
2022-12-15T11:13:39.951Z,0.76
2022-12-15T11:16:19.988Z,0.58
2022-12-15T11:19:01.495Z,0.57
2022-12-15T11:21:33.180Z,0.75
2022-12-15T11:24:06.710Z,0.89
2022-12-15T11:27:09.829Z,1.19
2022-12-15T11:30:00.054Z,1.24
2022-12-15T11:32:31.595Z,1.06
2022-12-15T11:34:58.416Z,1.31
2022-12-15T11:37:36.915Z,1.07
2022-12-15T11:40:17.467Z,0.98
2022-12-15T11:43:02.761Z,0.99
2022-12-15T11:45:47.620Z,0.98
2022-12-15T11:48:32.344Z,1.12
2022-12-15T11:51:10.806Z,1.11
2022-12-15T11:54:11.171Z,0.95
2022-12-15T11:56:45.443Z,0.58
2022-12-15T11:59:43.021Z,0.72
2022-12-15T12:02:34.415Z,0.65
2022-12-15T12:05:28.777Z,0.67
2022-12-15T12:08:04.279Z,0.36
2022-12-15T12:10:44.982Z,0.39
2022-12-15T12:13:28.719Z,0.51
2022-12-15T12:16:28.649Z,0.56
2022-12-15T12:19:02.922Z,0.61
2022-12-15T12:21:38.520Z,0.64
2022-12-15T12:24:32.902Z,0.35
2022-12-15T12:27:08.926Z,0.51
2022-12-15T12:29:45.383Z,0.79
2022-12-15T12:32:37.207Z,1.30
2022-12-15T12:35:31.312Z,1.69
2022-12-15T12:38:03.255Z,1.98
2022-12-15T12:41:07.663Z,1.88
2022-12-15T12:43:58.320Z,2.09
2022-12-15T12:46:34.251Z,2.21
2022-12-15T12:49:13.521Z,2.25
2022-12-15T12:51:41.968Z,2.09
2022-12-15T12:54:36.619Z,2.14
2022-12-15T12:57:12.215Z,1.67
2022-12-15T12:59:42.334Z,1.66
2022-12-15T13:02:14.697Z,1.55
2022-12-15T13:04:49.045Z,1.48
2022-12-15T13:07:36.333Z,1.23
2022-12-15T13:10:09.032Z,0.98
2022-12-15T13:12:51.651Z,0.90
2022-12-15T13:15:22.059Z,0.87
2022-12-15T13:17:55.939Z,0.72
2022-12-15T13:20:33.496Z,0.73
2022-12-15T13:23:21.799Z,0.64
2022-12-15T13:25:57.077Z,0.57
2022-12-15T13:28:36.025Z,0.59
2022-12-15T13:31:21.910Z,0.46
2022-12-15T13:33:51.609Z,0.35
2022-12-15T13:36:37.099Z,0.37
2022-12-15T13:39:12.804Z,0.16
2022-12-15T13:44:54.890Z,-0.02
2022-12-15T13:47:30.008Z,-0.17
2022-12-15T13:50:02.784Z,-0.11
2022-12-15T13:53:17.264Z,-0.08
2022-12-15T13:55:39.097Z,-0.18
2022-12-15T13:58:17.402Z,-0.15
2022-12-15T14:00:54.858Z,-0.20
2022-12-15T14:03:22.296Z,-0.26
2022-12-15T14:08:44.934Z,-0.40
2022-12-15T14:11:51.329Z,-0.42
2022-12-15T14:14:19.284Z,-0.57
2022-12-15T14:16:51.087Z,-0.58
2022-12-15T14:19:18.209Z,-0.57
2022-12-15T14:21:50.658Z,-0.60
2022-12-15T14:24:40.745Z,-0.67
2022-12-15T14:27:08.343Z,-0.71
2022-12-15T14:29:34.968Z,-0.76
2022-12-15T14:32:02.307Z,-0.78
2022-12-15T14:34:35.852Z,-0.80
2022-12-15T14:37:07.732Z,-0.75
2022-12-15T14:39:43.120Z,-0.73
2022-12-15T14:42:23.848Z,-0.76
2022-12-15T14:44:54.959Z,-0.86
2022-12-15T14:47:29.596Z,-0.87
2022-12-15T14:49:58.480Z,-0.96
2022-12-15T14:52:35.652Z,-0.97
2022-12-15T14:55:41.940Z,-1.04
2022-12-15T14:58:29.869Z,-1.09
2022-12-15T15:01:20.898Z,-1.20
2022-12-15T15:03:57.041Z,-0.29
2022-12-15T15:06:33.227Z,-0.43
2022-12-15T15:09:22.913Z,-0.85
2022-12-15T15:11:54.593Z,-1.11
2022-12-15T15:14:28.521Z,-1.22
2022-12-15T15:17:05.458Z,-1.26
2022-12-15T15:19:37.654Z,-1.29
2022-12-15T15:22:06.145Z,-1.31
2022-12-15T15:24:36.501Z,-1.35
2022-12-15T15:27:25.721Z,-1.37
2022-12-15T15:29:53.132Z,-1.38
2022-12-15T15:32:23.584Z,-1.21
2022-12-15T15:34:50.142Z,-1.29
2022-12-15T15:37:25.049Z,-1.35
2022-12-15T15:39:54.115Z,-1.38
2022-12-15T15:42:21.063Z,-1.36
2022-12-15T15:44:47.613Z,-1.43
2022-12-15T15:47:23.688Z,-1.41
2022-12-15T15:49:51.313Z,-1.40
2022-12-15T15:52:17.966Z,-1.39
2022-12-15T15:54:45.715Z,-1.38
2022-12-15T15:57:16.167Z,-1.38
2022-12-15T15:59:44.663Z,-1.30
2022-12-15T16:02:13.462Z,-1.28
2022-12-15T16:04:42.306Z,-1.26
2022-12-15T16:07:27.554Z,-1.32
2022-12-15T16:09:55.336Z,-1.34
2022-12-15T16:12:46.437Z,-1.33
2022-12-15T16:15:15.689Z,-1.32
2022-12-15T16:17:43.083Z,-1.36
2022-12-15T16:20:12.747Z,-1.29
2022-12-15T16:22:40.724Z,-1.27
2022-12-15T16:25:13.882Z,-1.31
2022-12-15T16:27:40.728Z,-1.27
2022-12-15T16:30:28.447Z,-1.22
2022-12-15T16:32:55.880Z,-1.19
2022-12-15T16:35:26.339Z,-1.17
2022-12-15T16:37:53.220Z,-1.10
2022-12-15T16:40:23.658Z,-1.14
2022-12-15T16:43:01.510Z,-1.13
2022-12-15T16:45:31.211Z,-1.18
2022-12-15T16:47:58.428Z,-1.18
2022-12-15T16:50:38.812Z,-1.17
2022-12-15T16:53:06.550Z,-1.12
2022-12-15T16:55:39.926Z,-1.10
2022-12-15T16:58:07.040Z,-1.10
2022-12-15T17:00:35.237Z,-1.10
2022-12-15T17:03:03.087Z,-1.02
2022-12-15T17:05:36.109Z,-1.05
2022-12-15T17:08:05.940Z,-1.01
2022-12-15T17:10:33.139Z,-0.98
2022-12-15T17:13:11.822Z,-0.97
2022-12-15T17:15:40.151Z,-0.94
2022-12-15T17:18:06.958Z,-0.95
2022-12-15T17:20:33.578Z,-0.89
2022-12-15T17:23:07.078Z,-0.88
2022-12-15T17:28:33.048Z,-0.86
2022-12-15T17:31:00.495Z,-0.85
2022-12-15T17:33:29.157Z,-0.80
2022-12-15T17:36:00.507Z,-0.81
2022-12-15T17:38:27.811Z,-0.78
2022-12-15T17:40:55.313Z,-0.75
2022-12-15T17:43:27.155Z,-0.76
2022-12-15T17:45:56.181Z,-0.76
2022-12-15T17:48:23.783Z,-0.73
2022-12-15T17:50:53.164Z,-0.73
2022-12-15T18:23:48.100Z,-0.60
2022-12-15T18:26:21.010Z,-0.59
2022-12-15T18:28:49.601Z,-0.58
2022-12-15T18:31:26.114Z,-0.55
2022-12-15T18:33:53.544Z,-0.57
2022-12-15T18:36:20.221Z,-0.56
2022-12-15T18:38:46.789Z,-0.58
2022-12-15T18:44:56.667Z,-0.57
2022-12-15T18:59:10.431Z,-0.58
2022-12-15T19:01:37.168Z,-0.58
2022-12-15T19:04:03.943Z,-0.57
2022-12-15T19:06:36.174Z,-0.59
2022-12-15T19:09:04.640Z,-0.56
2022-12-15T19:11:31.447Z,-0.60
2022-12-15T19:14:00.263Z,-0.57
2022-12-15T19:16:27.571Z,-0.56
2022-12-15T19:19:17.054Z,-0.60
2022-12-15T19:22:02.673Z,-0.59
2022-12-15T19:24:49.754Z,-0.64
2022-12-15T19:27:20.216Z,-0.60
2022-12-15T19:29:47.559Z,-0.63
2022-12-15T19:32:14.083Z,-0.60
2022-12-15T19:34:40.734Z,-0.64
2022-12-15T19:37:13.894Z,-0.62
2022-12-15T19:39:40.615Z,-0.64
2022-12-15T19:42:17.753Z,-0.65
2022-12-15T19:44:44.311Z,-0.66
2022-12-15T19:47:13.638Z,-0.66
2022-12-15T19:49:41.459Z,-0.68
2022-12-15T19:52:27.097Z,-0.64
2022-12-15T19:54:53.564Z,-0.67
2022-12-15T19:57:21.126Z,-0.69
2022-12-15T19:59:47.679Z,-0.69
2022-12-15T20:02:19.652Z,-0.71
2022-12-15T20:04:47.592Z,-0.72
2022-12-15T20:07:30.477Z,-0.75
2022-12-15T20:09:58.117Z,-0.76
2022-12-15T20:12:25.186Z,-0.78
2022-12-15T20:14:51.658Z,-0.78
2022-12-15T20:17:18.136Z,-0.82
2022-12-15T20:19:44.699Z,-0.82
2022-12-15T20:22:15.552Z,-0.82
2022-12-15T20:24:42.877Z,-0.80
2022-12-15T20:27:18.295Z,-0.80
2022-12-15T20:29:45.203Z,-0.80
2022-12-15T20:32:17.470Z,-0.81
2022-12-15T20:34:44.670Z,-0.83
2022-12-15T20:37:37.542Z,-0.84
2022-12-15T20:40:06.683Z,-0.84
2022-12-15T20:42:33.183Z,-0.82
2022-12-15T20:44:59.704Z,-0.82
2022-12-15T20:47:27.526Z,-0.79
2022-12-15T20:49:54.958Z,-0.78
2022-12-15T20:52:25.241Z,-0.77
2022-12-15T20:54:53.575Z,-0.77
2022-12-15T20:57:20.409Z,-0.78
2022-12-15T20:59:46.971Z,-0.77
2022-12-15T21:02:18.375Z,-0.81
2022-12-15T21:04:45.376Z,-0.77
2022-12-15T21:07:12.374Z,-0.78
2022-12-15T21:09:39.244Z,-0.79
2022-12-15T21:12:19.247Z,-0.79
2022-12-15T21:14:45.769Z,-0.78
2022-12-15T21:17:17.523Z,-0.80
2022-12-15T21:19:44.445Z,-0.78
2022-12-15T21:22:25.923Z,-0.79
2022-12-15T21:24:55.309Z,-0.81
2022-12-15T21:27:22.185Z,-0.81
2022-12-15T21:29:52.579Z,-0.82
2022-12-15T21:32:19.924Z,-0.80
2022-12-15T21:34:46.512Z,-0.82
2022-12-15T21:37:28.527Z,-0.80
2022-12-15T21:39:55.577Z,-0.82
2022-12-15T21:42:22.763Z,-0.83
2022-12-15T21:44:49.282Z,-0.84
2022-12-15T21:47:21.461Z,-0.81
2022-12-15T21:49:48.019Z,-0.79
2022-12-15T21:52:16.054Z,-0.83
2022-12-15T21:54:42.637Z,-0.81
2022-12-15T21:57:11.804Z,-0.82
2022-12-15T21:59:38.848Z,-0.81
2022-12-15T22:02:26.280Z,-0.82
2022-12-15T22:04:53.027Z,-0.80
2022-12-15T22:07:21.756Z,-0.79
2022-12-15T22:09:48.197Z,-0.82
2022-12-15T22:12:24.152Z,-0.81
2022-12-15T22:14:50.717Z,-0.79
2022-12-15T22:17:22.458Z,-0.78
2022-12-15T22:19:49.020Z,-0.76
2022-12-15T22:22:16.632Z,-0.79
2022-12-15T22:24:43.429Z,-0.79
2022-12-15T22:27:32.703Z,-0.78
2022-12-15T22:29:59.185Z,-0.75
2022-12-15T22:32:25.942Z,-0.75
2022-12-15T22:34:52.469Z,-0.75
2022-12-15T22:37:18.957Z,-0.76
2022-12-15T22:39:45.409Z,-0.74
2022-12-15T22:42:16.704Z,-0.72
2022-12-15T22:44:44.458Z,-0.73
2022-12-15T22:47:11.213Z,-0.75
2022-12-15T22:49:40.317Z,-0.74
2022-12-15T22:52:16.888Z,-0.74
2022-12-15T22:54:45.970Z,-0.75
2022-12-15T22:57:24.794Z,-0.71
2022-12-15T23:00:11.761Z,-0.71
2022-12-15T23:02:41.785Z,-0.70
2022-12-15T23:05:09.222Z,-0.71
2022-12-15T23:07:35.856Z,-0.71
2022-12-15T23:10:21.683Z,-0.70
2022-12-15T23:12:48.625Z,-0.70
2022-12-15T23:15:34.050Z,-0.70
2022-12-15T23:18:00.668Z,-0.72
2022-12-15T23:20:27.139Z,-0.70
2022-12-15T23:22:53.725Z,-0.70
2022-12-15T23:25:21.369Z,-0.69
2022-12-15T23:27:47.925Z,-0.72
2022-12-15T23:30:14.692Z,-0.67
2022-12-15T23:32:41.208Z,-0.70
2022-12-15T23:35:08.038Z,-0.69
2022-12-15T23:37:34.576Z,-0.70
2022-12-15T23:40:01.137Z,-0.70
2022-12-15T23:42:27.649Z,-0.70
2022-12-15T23:44:54.219Z,-0.71
2022-12-15T23:47:21.401Z,-0.70
2022-12-15T23:49:47.922Z,-0.68
2022-12-15T23:52:14.407Z,-0.65
2022-12-15T23:54:40.888Z,-0.68
2022-12-15T23:57:07.354Z,-0.67
2022-12-15T23:59:34.775Z,-0.67
